Haleakala, Hawaii
Current Conditions -  °F | °C
As of 5:54 PM on Tuesday 21 Oct 2014 (Local Time) from PHOG Reporting Station
Broken Clouds Broken Clouds  
Wind Chill: 82°   Ceiling: 7000
Heat Index: 85°   Visibility: 10mi
Dew Point: 69°   Wind: 14mph
Humidity: 65%   Direction: 60°ENE
Pressure: 29.95"   Gusts: 22mph
Location:  20.72°N, 156.13°W
Report Text: PHOG 220354Z 06012G19KT 10SM FEW020 SCT040 BKN070 28/21 A2995 RMK AO2 SLP146 T02780206
Loading
Personal Weather Stations






























Interactive Weather Map
Tropical Storm Tracking
New forecast layout! Learn more

10-Day Weather Forecast

Advertisements
Track Severe Weather on mobile